createdAt,value
2019-02-21T00:00:11.332Z,18.60
2019-02-21T00:01:11.315Z,16.10
2019-02-21T00:02:11.302Z,15.80
2019-02-21T00:03:11.293Z,16.60
2019-02-21T00:04:11.282Z,14.20
2019-02-21T00:05:11.280Z,14.40
2019-02-21T00:06:11.260Z,16.60
2019-02-21T00:07:11.250Z,15.20
2019-02-21T00:08:11.240Z,18.10
2019-02-21T00:09:11.230Z,17.40
2019-02-21T00:10:11.227Z,17.80
2019-02-21T00:11:11.206Z,16.40
2019-02-21T00:12:11.198Z,18.80
2019-02-21T00:13:11.184Z,17.10
2019-02-21T00:14:11.174Z,15.50
2019-02-21T00:15:11.187Z,17.80
2019-02-21T00:16:11.152Z,15.90
2019-02-21T00:17:11.142Z,15.20
2019-02-21T00:18:11.163Z,15.80
2019-02-21T00:19:11.120Z,14.80
2019-02-21T00:20:11.109Z,15.90
2019-02-21T00:21:11.106Z,17.30
2019-02-21T00:22:11.087Z,15.00
2019-02-21T00:23:11.078Z,18.50
2019-02-21T00:24:11.083Z,18.30
2019-02-21T00:25:11.056Z,17.40
2019-02-21T00:26:11.054Z,16.60
2019-02-21T00:27:11.034Z,18.10
2019-02-21T00:28:11.026Z,20.40
2019-02-21T00:29:11.013Z,18.30
2019-02-21T00:30:11.006Z,18.00
2019-02-21T00:31:11.000Z,16.70
2019-02-21T00:32:10.981Z,20.40
2019-02-21T00:33:10.979Z,17.90
2019-02-21T00:34:11.084Z,17.20
2019-02-21T00:35:10.949Z,18.00
2019-02-21T00:36:10.951Z,19.80
2019-02-21T00:37:10.926Z,19.40
2019-02-21T00:38:10.916Z,20.00
2019-02-21T00:39:10.905Z,18.70
2019-02-21T00:40:10.893Z,19.30
2019-02-21T00:41:10.907Z,20.20
2019-02-21T00:42:10.874Z,21.20
2019-02-21T00:43:10.862Z,20.50
2019-02-21T00:44:10.851Z,18.80
2019-02-21T00:45:10.840Z,18.60
2019-02-21T00:46:10.876Z,18.30
2019-02-21T00:47:10.820Z,19.30
2019-02-21T00:48:10.807Z,21.00
2019-02-21T00:49:10.798Z,19.00
2019-02-21T00:50:10.793Z,19.90
2019-02-21T00:51:10.777Z,17.00
2019-02-21T00:52:10.773Z,17.40
2019-02-21T00:53:10.757Z,19.00
2019-02-21T00:54:10.744Z,17.30
2019-02-21T00:55:10.737Z,18.50
2019-02-21T00:56:10.741Z,19.60
2019-02-21T00:57:10.722Z,18.60
2019-02-21T00:58:10.704Z,20.60
2019-02-21T00:59:10.691Z,21.00
2019-02-21T01:00:10.679Z,19.10
2019-02-21T01:01:10.668Z,19.80
2019-02-21T01:02:10.667Z,21.60
2019-02-21T01:03:10.651Z,22.10
2019-02-21T01:04:10.637Z,20.70
2019-02-21T01:05:10.626Z,21.60
2019-02-21T01:06:10.616Z,21.20
2019-02-21T01:07:10.613Z,20.70
2019-02-21T01:08:10.593Z,21.20
2019-02-21T01:09:10.583Z,21.60
2019-02-21T01:10:10.573Z,21.90
2019-02-21T01:11:10.562Z,20.20
2019-02-21T01:12:10.559Z,21.70
2019-02-21T01:13:10.539Z,21.30
2019-02-21T01:14:10.528Z,21.00
2019-02-21T01:15:10.518Z,21.10
2019-02-21T01:16:10.510Z,22.20
2019-02-21T01:17:10.505Z,19.80
2019-02-21T01:18:10.485Z,22.90
2019-02-21T01:19:10.475Z,21.80
2019-02-21T01:20:10.463Z,21.20
2019-02-21T01:21:10.455Z,22.40
2019-02-21T01:22:10.488Z,21.70
2019-02-21T01:23:10.432Z,20.90
2019-02-21T01:24:10.421Z,21.00
2019-02-21T01:25:10.411Z,24.30
2019-02-21T01:26:10.399Z,20.30
2019-02-21T01:27:10.392Z,21.60
2019-02-21T01:28:10.388Z,22.40
2019-02-21T01:29:10.367Z,19.70
2019-02-21T01:30:10.357Z,21.20
2019-02-21T01:31:10.349Z,21.50
2019-02-21T01:32:10.344Z,20.60
2019-02-21T01:33:10.332Z,21.30
2019-02-21T01:34:10.314Z,20.40
2019-02-21T01:35:10.301Z,21.10
2019-02-21T01:36:10.309Z,18.60
2019-02-21T01:37:10.280Z,19.20
2019-02-21T01:38:10.280Z,20.70
2019-02-21T01:39:10.258Z,20.80
2019-02-21T01:40:10.248Z,20.30
2019-02-21T01:41:10.236Z,21.20
2019-02-21T01:42:10.225Z,18.60
2019-02-21T01:43:10.229Z,19.10
2019-02-21T01:44:10.203Z,18.70
2019-02-21T01:45:10.195Z,19.60
2019-02-21T01:46:10.201Z,18.90
2019-02-21T01:47:10.172Z,20.70
2019-02-21T01:48:10.168Z,19.20
2019-02-21T01:49:10.150Z,19.20
2019-02-21T01:50:10.141Z,18.90
2019-02-21T01:51:10.127Z,21.00
2019-02-21T01:52:10.118Z,19.30
2019-02-21T01:53:10.114Z,20.80
2019-02-21T01:54:10.095Z,19.00
2019-02-21T01:55:10.089Z,16.40
2019-02-21T01:56:10.073Z,19.20
2019-02-21T01:57:10.063Z,19.00
2019-02-21T01:58:10.060Z,20.70
2019-02-21T01:59:10.040Z,18.90
2019-02-21T02:00:10.030Z,16.90
2019-02-21T02:01:10.023Z,17.80
2019-02-21T02:02:10.008Z,19.10
2019-02-21T02:03:10.010Z,18.30
2019-02-21T02:04:09.986Z,19.40
2019-02-21T02:05:09.975Z,18.90
2019-02-21T02:06:09.964Z,16.20
2019-02-21T02:07:09.953Z,19.50
2019-02-21T02:08:09.952Z,18.00
2019-02-21T02:09:09.931Z,17.60
2019-02-21T02:10:09.923Z,18.00
2019-02-21T02:11:09.909Z,18.90
2019-02-21T02:12:09.899Z,18.00
2019-02-21T02:13:23.564Z,17.20
2019-02-21T02:14:10.880Z,17.40
2019-02-21T02:15:09.867Z,19.00
2019-02-21T02:16:09.857Z,16.40
2019-02-21T02:17:09.848Z,18.40
2019-02-21T02:18:09.859Z,19.50
2019-02-21T02:19:09.827Z,19.40
2019-02-21T02:20:09.814Z,17.30
2019-02-21T02:21:09.803Z,18.20
2019-02-21T02:22:09.791Z,17.70
2019-02-21T02:23:09.780Z,18.40
2019-02-21T02:24:09.777Z,16.50
2019-02-21T02:25:09.757Z,17.50
2019-02-21T02:26:09.748Z,17.60
2019-02-21T02:27:09.738Z,17.50
2019-02-21T02:28:09.727Z,15.80
2019-02-21T02:29:09.724Z,17.80
2019-02-21T02:30:09.705Z,18.60
2019-02-21T02:31:21.891Z,17.70
2019-02-21T02:32:10.686Z,17.20
2019-02-21T02:33:09.672Z,16.90
2019-02-21T02:34:09.670Z,18.80
2019-02-21T02:35:09.653Z,18.50
2019-02-21T02:36:09.644Z,19.10
2019-02-21T02:37:09.631Z,19.10
2019-02-21T02:38:09.626Z,16.90
2019-02-21T02:39:09.614Z,18.10
2019-02-21T02:40:09.596Z,17.20
2019-02-21T02:41:09.585Z,19.50
2019-02-21T02:42:09.575Z,18.90
2019-02-21T02:43:09.564Z,18.10
2019-02-21T02:44:09.564Z,18.80
2019-02-21T02:45:09.540Z,17.60
2019-02-21T02:46:09.532Z,17.70
2019-02-21T02:47:09.529Z,18.50
2019-02-21T02:48:09.507Z,18.20
2019-02-21T02:49:09.508Z,17.00
2019-02-21T02:50:09.486Z,18.10
2019-02-21T02:51:09.475Z,18.00
2019-02-21T02:52:09.464Z,20.50
2019-02-21T02:53:09.471Z,17.70
2019-02-21T02:54:09.453Z,18.80
2019-02-21T02:55:09.431Z,23.00
2019-02-21T02:56:09.447Z,20.10
2019-02-21T02:57:09.410Z,19.90
2019-02-21T02:58:09.399Z,20.30
2019-02-21T02:59:09.402Z,24.20
2019-02-21T03:00:09.379Z,21.90
2019-02-21T03:01:09.372Z,22.10
2019-02-21T03:02:09.354Z,20.90
2019-02-21T03:03:09.421Z,20.50
2019-02-21T03:04:09.341Z,22.20
2019-02-21T03:05:09.324Z,22.90
2019-02-21T03:06:09.316Z,21.40
2019-02-21T03:07:09.303Z,21.20
2019-02-21T03:08:09.289Z,22.70
2019-02-21T03:09:09.287Z,22.20
2019-02-21T03:10:09.270Z,22.80
2019-02-21T03:11:09.255Z,23.60
2019-02-21T03:12:09.255Z,24.40
2019-02-21T03:13:09.233Z,23.60
2019-02-21T03:14:09.231Z,23.50
2019-02-21T03:15:09.213Z,22.50
2019-02-21T03:16:09.203Z,25.40
2019-02-21T03:17:09.193Z,25.70
2019-02-21T03:18:09.180Z,24.60
2019-02-21T03:19:09.178Z,24.30
2019-02-21T03:20:09.178Z,24.70
2019-02-21T03:21:09.147Z,24.70
2019-02-21T03:22:09.136Z,24.10
2019-02-21T03:23:09.135Z,26.10
2019-02-21T03:24:09.124Z,26.50
2019-02-21T03:25:09.103Z,25.90
2019-02-21T03:26:09.093Z,27.00
2019-02-21T03:27:09.081Z,26.70
2019-02-21T03:28:09.073Z,27.80
2019-02-21T03:29:09.069Z,25.90
2019-02-21T03:30:12.136Z,29.20
2019-02-21T03:31:09.040Z,26.20
2019-02-21T03:32:09.031Z,26.80
2019-02-21T03:33:09.036Z,28.70
2019-02-21T03:34:09.032Z,26.50
2019-02-21T03:35:09.005Z,24.60
2019-02-21T03:36:08.984Z,28.70
2019-02-21T03:37:08.973Z,28.40
2019-02-21T03:38:08.972Z,31.50
2019-02-21T03:39:09.029Z,27.80
2019-02-21T03:40:08.956Z,27.50
2019-02-21T03:41:08.928Z,29.30
2019-02-21T03:42:08.938Z,29.90
2019-02-21T03:43:08.917Z,27.90
2019-02-21T03:44:08.895Z,27.70
2019-02-21T03:45:08.897Z,28.60
2019-02-21T03:46:08.879Z,30.90
2019-02-21T03:47:08.865Z,29.50
2019-02-21T03:48:08.854Z,29.20
2019-02-21T03:49:08.843Z,30.10
2019-02-21T03:50:08.846Z,28.50
2019-02-21T03:51:08.820Z,29.50
2019-02-21T03:52:08.814Z,30.70
2019-02-21T03:53:08.806Z,28.80
2019-02-21T03:54:08.787Z,28.20
2019-02-21T03:55:08.787Z,30.20
2019-02-21T03:56:08.771Z,29.20
2019-02-21T03:57:08.757Z,31.70
2019-02-21T03:58:08.744Z,27.10
2019-02-21T03:59:08.733Z,30.40
2019-02-21T04:00:08.730Z,29.40
2019-02-21T04:01:08.709Z,30.10
2019-02-21T04:02:08.699Z,30.10
2019-02-21T04:03:08.722Z,29.40
2019-02-21T04:04:08.678Z,28.70
2019-02-21T04:05:08.675Z,29.60
2019-02-21T04:06:08.661Z,28.90
2019-02-21T04:07:08.650Z,30.70
2019-02-21T04:08:08.639Z,28.20
2019-02-21T04:09:08.626Z,28.80
2019-02-21T04:10:08.622Z,30.50
2019-02-21T04:11:08.601Z,30.50
2019-02-21T04:12:08.590Z,28.80
2019-02-21T04:13:08.580Z,31.20
2019-02-21T04:14:08.569Z,30.10
2019-02-21T04:15:08.566Z,31.60
2019-02-21T04:16:08.548Z,31.30
2019-02-21T04:17:08.538Z,30.20
2019-02-21T04:18:08.528Z,32.60
2019-02-21T04:19:08.520Z,31.80
2019-02-21T04:20:08.522Z,34.40
2019-02-21T04:21:08.492Z,33.80
2019-02-21T04:22:08.485Z,31.10
2019-02-21T04:23:08.470Z,33.50
2019-02-21T04:24:08.462Z,34.80
2019-02-21T04:25:08.456Z,32.30
2019-02-21T04:26:08.437Z,34.70
2019-02-21T04:27:08.427Z,32.60
2019-02-21T04:28:08.424Z,33.70
2019-02-21T04:29:08.405Z,32.80
2019-02-21T04:30:08.406Z,36.20
2019-02-21T04:31:08.383Z,34.60
2019-02-21T04:32:16.622Z,33.50
2019-02-21T04:33:09.361Z,33.50
2019-02-21T04:34:08.349Z,31.40
2019-02-21T04:35:08.347Z,32.30
2019-02-21T04:36:08.328Z,32.30
2019-02-21T04:37:08.318Z,34.00
2019-02-21T04:38:08.309Z,36.50
2019-02-21T04:39:08.300Z,33.40
2019-02-21T04:40:08.300Z,34.30
2019-02-21T04:41:08.275Z,35.80
2019-02-21T04:42:08.264Z,32.80
2019-02-21T04:43:08.256Z,34.60
2019-02-21T04:44:08.242Z,36.00
2019-02-21T04:45:08.238Z,35.20
2019-02-21T04:46:08.219Z,34.30
2019-02-21T04:47:08.210Z,34.60
2019-02-21T04:48:08.198Z,35.00
2019-02-21T04:49:08.190Z,33.10
2019-02-21T04:50:08.186Z,37.80
2019-02-21T04:51:08.164Z,34.50
2019-02-21T04:52:08.157Z,33.50
2019-02-21T04:53:08.142Z,37.00
2019-02-21T04:54:08.133Z,37.10
2019-02-21T04:55:08.137Z,35.20
2019-02-21T04:56:08.111Z,38.10
2019-02-21T04:57:08.100Z,38.90
2019-02-21T04:58:08.090Z,34.40
2019-02-21T04:59:08.079Z,39.40
2019-02-21T05:00:08.102Z,39.20
2019-02-21T05:01:08.094Z,39.00
2019-02-21T05:02:08.099Z,37.10
2019-02-21T05:03:08.043Z,36.90
2019-02-21T05:04:08.025Z,35.80
2019-02-21T05:05:08.049Z,40.90
2019-02-21T05:06:08.011Z,37.70
2019-02-21T05:07:07.991Z,39.10
2019-02-21T05:08:07.984Z,40.00
2019-02-21T05:09:07.968Z,38.40
2019-02-21T05:10:07.958Z,36.70
2019-02-21T05:11:07.957Z,38.00
2019-02-21T05:12:07.936Z,35.90
2019-02-21T05:13:07.933Z,34.80
2019-02-21T05:14:07.915Z,39.30
2019-02-21T05:15:07.911Z,37.40
2019-02-21T05:16:07.902Z,42.90
2019-02-21T05:17:07.882Z,39.40
2019-02-21T05:18:07.871Z,37.40
2019-02-21T05:19:07.862Z,39.10
2019-02-21T05:20:07.850Z,43.30
2019-02-21T05:21:07.847Z,38.00
2019-02-21T05:22:07.832Z,43.90
2019-02-21T05:23:07.826Z,42.80
2019-02-21T05:24:07.817Z,40.50
2019-02-21T05:25:07.797Z,44.40
2019-02-21T05:26:07.793Z,45.80
2019-02-21T05:27:07.774Z,41.60
2019-02-21T05:28:07.763Z,45.10
2019-02-21T05:29:07.819Z,48.70
2019-02-21T05:30:07.754Z,43.90
2019-02-21T05:31:07.742Z,48.80
2019-02-21T05:32:07.723Z,47.20
2019-02-21T05:33:07.709Z,43.00
2019-02-21T05:34:07.699Z,42.40
2019-02-21T05:35:07.691Z,46.60
2019-02-21T05:36:07.685Z,46.90
2019-02-21T05:37:07.664Z,43.70
2019-02-21T05:38:07.893Z,44.20
2019-02-21T05:39:07.643Z,45.20
2019-02-21T05:40:07.633Z,45.90
2019-02-21T05:41:07.630Z,52.60
2019-02-21T05:42:07.610Z,49.90
2019-02-21T05:43:07.600Z,47.70
2019-02-21T05:44:07.602Z,53.60
2019-02-21T05:45:07.587Z,48.50
2019-02-21T05:46:07.577Z,48.40
2019-02-21T05:47:07.564Z,50.40
2019-02-21T05:48:07.563Z,53.10
2019-02-21T05:49:07.536Z,47.30
2019-02-21T05:50:07.528Z,46.50
2019-02-21T05:51:07.522Z,50.20
2019-02-21T05:52:07.586Z,48.70
2019-02-21T05:53:07.495Z,53.60
2019-02-21T05:54:07.486Z,46.00
2019-02-21T05:55:07.482Z,47.10
2019-02-21T05:56:07.765Z,48.20
2019-02-21T05:57:07.449Z,53.50
2019-02-21T05:58:07.440Z,53.80
2019-02-21T05:59:07.441Z,48.60
2019-02-21T06:00:07.424Z,49.20
2019-02-21T06:01:07.410Z,47.00
2019-02-21T06:02:07.405Z,49.60
2019-02-21T06:03:07.414Z,49.70
2019-02-21T06:04:07.376Z,50.60
2019-02-21T06:05:08.781Z,52.20
2019-02-21T06:06:07.365Z,51.60
2019-02-21T06:07:09.788Z,46.10
2019-02-21T06:08:07.333Z,46.30
2019-02-21T06:09:07.319Z,46.50
2019-02-21T06:10:07.315Z,47.50
2019-02-21T06:11:07.300Z,47.70
2019-02-21T06:12:07.580Z,50.80
2019-02-21T06:13:07.276Z,49.80
2019-02-21T06:14:07.268Z,48.70
2019-02-21T06:15:07.257Z,49.70
2019-02-21T06:16:07.243Z,49.80
2019-02-21T06:17:07.233Z,54.20
2019-02-21T06:18:07.234Z,53.20
2019-02-21T06:19:07.214Z,55.60
2019-02-21T06:20:07.202Z,59.00
2019-02-21T06:21:07.199Z,58.10
2019-02-21T06:22:10.502Z,54.90
2019-02-21T06:23:07.178Z,54.00
2019-02-21T06:24:07.157Z,56.70
2019-02-21T06:25:07.147Z,54.50
2019-02-21T06:26:07.141Z,60.70
2019-02-21T06:27:07.129Z,53.50
2019-02-21T06:28:07.123Z,56.70
2019-02-21T06:29:09.702Z,52.90
2019-02-21T06:30:07.093Z,57.10
2019-02-21T06:31:07.081Z,56.50
2019-02-21T06:32:14.319Z,53.50
2019-02-21T06:33:08.068Z,54.00
2019-02-21T06:34:07.050Z,54.50
2019-02-21T06:35:07.041Z,59.70
2019-02-21T06:36:07.029Z,53.60
2019-02-21T06:37:07.018Z,50.90
2019-02-21T06:38:07.017Z,51.60
2019-02-21T06:39:07.055Z,56.50
2019-02-21T06:40:06.984Z,56.10
2019-02-21T06:41:06.973Z,54.10
2019-02-21T06:42:06.961Z,55.40
2019-02-21T06:43:06.978Z,55.90
2019-02-21T06:44:06.941Z,54.10
2019-02-21T06:45:06.938Z,53.90
2019-02-21T06:46:06.918Z,50.30
2019-02-21T06:47:06.908Z,53.10
2019-02-21T06:48:06.897Z,53.30
2019-02-21T06:49:06.896Z,57.70
2019-02-21T06:50:06.877Z,54.40
2019-02-21T06:51:06.867Z,53.00
2019-02-21T06:52:06.854Z,55.30
2019-02-21T06:53:06.846Z,57.30
2019-02-21T06:54:06.841Z,55.50
2019-02-21T06:55:06.822Z,56.10
2019-02-21T06:56:06.814Z,53.60
2019-02-21T06:57:06.801Z,53.90
2019-02-21T06:58:06.789Z,54.30
2019-02-21T06:59:06.786Z,56.20
2019-02-21T07:00:06.773Z,53.60
2019-02-21T07:01:06.758Z,53.50
2019-02-21T07:02:06.746Z,55.70
2019-02-21T07:03:15.546Z,52.90
2019-02-21T07:04:07.733Z,52.40
2019-02-21T07:05:06.716Z,53.00
2019-02-21T07:06:06.704Z,53.40
2019-02-21T07:07:06.693Z,52.20
2019-02-21T07:08:08.749Z,49.70
2019-02-21T07:09:06.683Z,54.50
2019-02-21T07:10:06.659Z,51.00
2019-02-21T07:11:06.778Z,49.30
2019-02-21T07:12:06.637Z,53.00
2019-02-21T07:13:06.627Z,51.60
2019-02-21T07:14:06.625Z,49.30
2019-02-21T07:15:06.605Z,49.90
2019-02-21T07:16:06.597Z,52.20
2019-02-21T07:17:08.316Z,51.70
2019-02-21T07:18:06.574Z,50.90
2019-02-21T07:19:06.570Z,48.50
2019-02-21T07:20:06.556Z,49.70
2019-02-21T07:21:06.539Z,47.60
2019-02-21T07:22:06.530Z,47.30
2019-02-21T07:23:06.518Z,48.40
2019-02-21T07:24:06.523Z,47.40
2019-02-21T07:25:06.498Z,49.40
2019-02-21T07:26:06.485Z,48.10
2019-02-21T07:27:06.475Z,46.60
2019-02-21T07:28:11.877Z,46.70
2019-02-21T07:29:07.470Z,48.30
2019-02-21T07:30:06.442Z,45.20
2019-02-21T07:31:06.431Z,45.90
2019-02-21T07:32:06.420Z,43.70
2019-02-21T07:33:06.410Z,47.40
2019-02-21T07:34:07.121Z,42.70
2019-02-21T07:35:06.388Z,47.10
2019-02-21T07:36:06.377Z,45.90
2019-02-21T07:37:17.572Z,41.70
2019-02-21T07:38:07.355Z,44.80
2019-02-21T07:39:16.930Z,42.60
2019-02-21T07:40:07.334Z,42.20
2019-02-21T07:41:06.403Z,42.80
2019-02-21T07:42:06.312Z,44.20
2019-02-21T07:43:06.303Z,41.70
2019-02-21T07:44:12.215Z,41.90
2019-02-21T07:45:07.416Z,41.30
2019-02-21T07:46:07.009Z,44.40
2019-02-21T07:47:06.263Z,41.40
2019-02-21T07:48:06.245Z,40.00
2019-02-21T07:49:06.236Z,37.00
2019-02-21T07:50:06.231Z,37.90
2019-02-21T07:51:06.218Z,40.20
2019-02-21T07:52:06.203Z,40.00
2019-02-21T07:53:06.191Z,39.10
2019-02-21T07:54:06.180Z,37.50
2019-02-21T07:55:06.183Z,37.60
2019-02-21T07:56:06.158Z,39.60
2019-02-21T07:57:08.476Z,40.30
2019-02-21T07:58:06.137Z,39.10
2019-02-21T07:59:06.126Z,41.90
2019-02-21T08:00:06.154Z,43.20
2019-02-21T08:01:06.104Z,44.00
2019-02-21T08:02:06.092Z,40.90
2019-02-21T08:03:06.082Z,45.70
2019-02-21T08:04:06.071Z,47.50
2019-02-21T08:05:06.062Z,42.80
2019-02-21T08:06:06.058Z,46.00
2019-02-21T08:07:06.038Z,42.20
2019-02-21T08:08:06.031Z,44.50
2019-02-21T08:09:06.018Z,44.90
2019-02-21T08:10:06.006Z,43.70
2019-02-21T08:11:07.138Z,46.00
2019-02-21T08:12:05.987Z,43.90
2019-02-21T08:13:05.974Z,47.10
2019-02-21T08:14:05.962Z,44.50
2019-02-21T08:15:05.952Z,46.20
2019-02-21T08:16:05.951Z,43.80
2019-02-21T08:17:05.930Z,46.30
2019-02-21T08:18:05.919Z,46.50
2019-02-21T08:19:05.908Z,50.40
2019-02-21T08:20:08.726Z,53.20
2019-02-21T08:21:05.906Z,45.30
2019-02-21T08:22:05.876Z,48.50
2019-02-21T08:23:05.866Z,45.00
2019-02-21T08:24:05.854Z,46.60
2019-02-21T08:25:05.845Z,47.90
2019-02-21T08:26:05.845Z,50.60
2019-02-21T08:27:05.822Z,46.80
2019-02-21T08:28:05.812Z,48.10
2019-02-21T08:29:06.260Z,50.00
2019-02-21T08:30:05.790Z,50.60
2019-02-21T08:31:05.800Z,50.80
2019-02-21T08:32:05.767Z,58.40
2019-02-21T08:33:05.759Z,49.20
2019-02-21T08:34:05.754Z,48.20
2019-02-21T08:35:06.923Z,55.80
2019-02-21T08:36:05.744Z,49.30
2019-02-21T08:37:05.714Z,55.80
2019-02-21T08:38:05.701Z,52.80
2019-02-21T08:39:05.694Z,56.20
2019-02-21T08:40:05.682Z,58.30
2019-02-21T08:41:05.679Z,54.80
2019-02-21T08:42:05.661Z,56.80
2019-02-21T08:43:05.648Z,56.00
2019-02-21T08:44:05.641Z,53.30
2019-02-21T08:45:05.626Z,53.70
2019-02-21T08:46:05.628Z,49.90
2019-02-21T08:47:05.624Z,52.80
2019-02-21T08:48:05.594Z,49.80
2019-02-21T08:49:05.581Z,47.50
2019-02-21T08:50:05.576Z,49.40
2019-02-21T08:51:06.351Z,54.30
2019-02-21T08:52:05.553Z,52.50
2019-02-21T08:53:05.539Z,53.70
2019-02-21T08:54:06.025Z,51.50
2019-02-21T08:55:05.523Z,44.90
2019-02-21T08:56:05.516Z,50.80
2019-02-21T08:57:05.495Z,53.90
2019-02-21T08:58:07.838Z,49.10
2019-02-21T08:59:05.473Z,51.30
2019-02-21T09:00:05.465Z,50.40
2019-02-21T09:01:05.465Z,56.60
2019-02-21T09:02:05.448Z,60.60
2019-02-21T09:03:05.434Z,58.00
2019-02-21T09:04:10.563Z,60.40
2019-02-21T09:05:06.407Z,59.40
2019-02-21T09:06:05.408Z,57.80
2019-02-21T09:07:05.386Z,50.50
2019-02-21T09:08:05.375Z,48.80
2019-02-21T09:09:05.368Z,52.40
2019-02-21T09:10:05.355Z,50.90
2019-02-21T09:11:05.375Z,45.50
2019-02-21T09:12:05.813Z,49.10
2019-02-21T09:13:05.321Z,49.20
2019-02-21T09:14:05.312Z,47.30
2019-02-21T09:15:05.299Z,48.10
2019-02-21T09:16:05.293Z,51.80
2019-02-21T09:17:05.293Z,50.00
2019-02-21T09:18:05.268Z,47.20
2019-02-21T09:19:05.258Z,47.60
2019-02-21T09:20:05.244Z,46.50
2019-02-21T09:21:05.239Z,47.90
2019-02-21T09:22:05.233Z,53.60
2019-02-21T09:23:05.213Z,49.90
2019-02-21T09:24:05.203Z,49.60
2019-02-21T09:25:05.198Z,51.50
2019-02-21T09:26:05.183Z,45.90
2019-02-21T09:27:05.186Z,48.00
2019-02-21T09:28:05.160Z,47.70
2019-02-21T09:29:05.147Z,49.30
2019-02-21T09:30:05.397Z,50.50
2019-02-21T09:31:05.131Z,48.20
2019-02-21T09:32:06.993Z,43.70
2019-02-21T09:33:05.104Z,46.70
2019-02-21T09:34:05.093Z,45.30
2019-02-21T09:35:05.083Z,45.40
2019-02-21T09:36:05.072Z,45.90
2019-02-21T09:37:05.508Z,45.10
2019-02-21T09:38:05.050Z,46.60
2019-02-21T09:39:05.039Z,48.30
2019-02-21T09:40:05.029Z,45.00
2019-02-21T09:41:05.016Z,44.60
2019-02-21T09:42:05.020Z,41.30
2019-02-21T09:43:05.001Z,40.90
2019-02-21T09:44:04.985Z,42.10
2019-02-21T09:45:04.980Z,39.00
2019-02-21T09:46:04.967Z,43.60
2019-02-21T09:47:04.963Z,44.10
2019-02-21T09:48:04.941Z,44.40
2019-02-21T09:49:04.931Z,41.90
2019-02-21T09:50:04.924Z,39.70
2019-02-21T09:51:04.950Z,40.50
2019-02-21T09:52:04.923Z,38.90
2019-02-21T09:53:04.889Z,37.80
2019-02-21T09:54:04.880Z,37.70
2019-02-21T09:55:04.870Z,35.40
2019-02-21T09:56:04.857Z,36.60
2019-02-21T09:57:12.815Z,36.90
2019-02-21T09:58:05.834Z,36.60
2019-02-21T09:59:04.827Z,36.70
2019-02-21T10:00:04.814Z,39.10
2019-02-21T10:01:04.801Z,36.30
2019-02-21T10:02:04.803Z,36.20
2019-02-21T10:03:04.783Z,37.70
2019-02-21T10:04:04.770Z,36.70
2019-02-21T10:05:05.637Z,35.50
2019-02-21T10:06:04.762Z,37.90
2019-02-21T10:07:04.764Z,39.00
2019-02-21T10:08:04.727Z,35.90
2019-02-21T10:09:04.717Z,35.20
2019-02-21T10:10:04.706Z,34.50
2019-02-21T10:11:04.696Z,37.80
2019-02-21T10:12:04.695Z,33.90
2019-02-21T10:13:04.677Z,33.90
2019-02-21T10:14:04.665Z,37.40
2019-02-21T10:15:04.653Z,35.60
2019-02-21T10:16:04.977Z,34.80
2019-02-21T10:17:04.642Z,36.20
2019-02-21T10:18:04.620Z,33.60
2019-02-21T10:19:04.611Z,33.00
2019-02-21T10:20:04.601Z,33.10
2019-02-21T10:21:04.589Z,34.60
2019-02-21T10:22:04.617Z,36.00
2019-02-21T10:23:04.567Z,31.60
2019-02-21T10:24:04.562Z,34.20
2019-02-21T10:25:04.544Z,34.10
2019-02-21T10:26:04.533Z,33.00
2019-02-21T10:27:04.530Z,32.20
2019-02-21T10:28:04.511Z,31.80
2019-02-21T10:29:04.506Z,33.90
2019-02-21T10:30:04.490Z,35.30
2019-02-21T10:31:04.479Z,31.70
2019-02-21T10:32:04.478Z,31.30
2019-02-21T10:33:04.456Z,32.90
2019-02-21T10:34:04.444Z,31.50
2019-02-21T10:35:04.433Z,29.60
2019-02-21T10:36:04.426Z,30.60
2019-02-21T10:37:04.439Z,31.30
2019-02-21T10:38:04.405Z,29.20
2019-02-21T10:39:04.390Z,30.60
2019-02-21T10:40:04.379Z,30.20
2019-02-21T10:41:04.367Z,31.50
2019-02-21T10:42:04.360Z,32.40
2019-02-21T10:43:04.362Z,31.00
2019-02-21T10:44:04.337Z,31.10
2019-02-21T10:45:04.323Z,28.90
2019-02-21T10:46:04.318Z,30.50
2019-02-21T10:47:04.300Z,32.00
2019-02-21T10:48:04.299Z,30.10
2019-02-21T10:49:04.278Z,30.20
2019-02-21T10:50:04.267Z,30.90
2019-02-21T10:51:04.255Z,32.10
2019-02-21T10:52:04.246Z,30.90
2019-02-21T10:53:04.245Z,30.90
2019-02-21T10:54:04.224Z,29.90
2019-02-21T10:55:04.212Z,31.00
2019-02-21T10:56:04.201Z,29.30
2019-02-21T10:57:04.199Z,30.10
2019-02-21T10:58:04.186Z,28.40
2019-02-21T10:59:04.169Z,29.70
2019-02-21T11:00:04.156Z,30.40
2019-02-21T11:01:04.144Z,30.40
2019-02-21T11:02:04.133Z,29.70
2019-02-21T11:03:04.135Z,30.30
2019-02-21T11:04:04.111Z,30.90
2019-02-21T11:05:04.100Z,31.50
2019-02-21T11:06:04.087Z,29.20
2019-02-21T11:07:04.077Z,27.30
2019-02-21T11:08:04.075Z,31.00
2019-02-21T11:09:04.055Z,30.70
2019-02-21T11:10:04.050Z,29.20
2019-02-21T11:11:04.034Z,30.70
2019-02-21T11:12:04.025Z,26.40
2019-02-21T11:13:04.019Z,28.70
2019-02-21T11:14:04.000Z,27.50
2019-02-21T11:15:03.990Z,28.90
2019-02-21T11:16:04.001Z,29.10
2019-02-21T11:17:03.966Z,27.40
2019-02-21T11:18:03.963Z,27.30
2019-02-21T11:19:03.944Z,31.00
2019-02-21T11:20:03.935Z,28.00
2019-02-21T11:21:04.001Z,27.30
2019-02-21T11:22:03.910Z,28.70
2019-02-21T11:23:06.427Z,26.80
2019-02-21T11:24:03.892Z,30.20
2019-02-21T11:25:03.880Z,27.90
2019-02-21T11:26:03.922Z,28.20
2019-02-21T11:27:03.856Z,29.00
2019-02-21T11:28:03.858Z,28.00
2019-02-21T11:29:03.835Z,30.20
2019-02-21T11:30:03.823Z,26.30
2019-02-21T11:31:03.813Z,27.40
2019-02-21T11:32:03.807Z,27.40
2019-02-21T11:33:03.810Z,25.30
2019-02-21T11:34:03.778Z,27.80
2019-02-21T11:35:06.529Z,26.90
2019-02-21T11:36:03.756Z,26.90
2019-02-21T11:37:03.746Z,27.00
2019-02-21T11:38:03.747Z,26.50
2019-02-21T11:39:03.732Z,27.00
2019-02-21T11:40:05.606Z,26.50
2019-02-21T11:41:03.743Z,26.30
2019-02-21T11:42:03.692Z,26.10
2019-02-21T11:43:03.698Z,28.60
2019-02-21T11:44:03.672Z,25.70
2019-02-21T11:45:03.658Z,26.20
2019-02-21T11:46:03.650Z,25.60
2019-02-21T11:47:03.639Z,26.60
2019-02-21T11:48:03.636Z,24.60
2019-02-21T11:49:03.617Z,26.40
2019-02-21T11:50:03.603Z,25.20
2019-02-21T11:51:03.594Z,23.30
2019-02-21T11:52:10.249Z,27.90
2019-02-21T11:53:04.580Z,26.20
2019-02-21T11:54:03.560Z,24.90
2019-02-21T11:55:03.553Z,25.20
2019-02-21T11:56:03.538Z,23.60
2019-02-21T11:57:03.527Z,26.70
2019-02-21T11:58:03.539Z,25.10
2019-02-21T11:59:03.506Z,23.70
2019-02-21T12:00:03.494Z,24.80
2019-02-21T12:01:03.484Z,23.50
2019-02-21T12:02:03.479Z,26.10
2019-02-21T12:03:03.466Z,22.90
2019-02-21T12:04:03.463Z,24.80
2019-02-21T12:05:03.445Z,22.60
2019-02-21T12:06:03.433Z,21.90
2019-02-21T12:07:03.418Z,23.40
2019-02-21T12:08:03.408Z,21.80
2019-02-21T12:09:03.405Z,23.10
2019-02-21T12:10:03.391Z,22.20
2019-02-21T12:11:03.373Z,23.90
2019-02-21T12:12:03.365Z,22.20
2019-02-21T12:13:03.355Z,24.10
2019-02-21T12:14:03.358Z,22.00
2019-02-21T12:15:03.330Z,25.50
2019-02-21T12:16:03.325Z,20.90
2019-02-21T12:17:03.310Z,21.80
2019-02-21T12:18:03.319Z,28.90
2019-02-21T12:19:03.295Z,20.60
2019-02-21T12:20:03.277Z,21.00
2019-02-21T12:21:03.263Z,19.00
2019-02-21T12:22:03.253Z,22.10
2019-02-21T12:23:03.243Z,20.10
2019-02-21T12:24:03.243Z,21.60
2019-02-21T12:25:03.224Z,19.40
2019-02-21T12:26:03.212Z,22.30
2019-02-21T12:27:03.203Z,23.10
2019-02-21T12:28:03.190Z,20.50
2019-02-21T12:29:03.194Z,22.30
2019-02-21T12:30:03.172Z,20.30
2019-02-21T12:31:03.157Z,19.00
2019-02-21T12:32:03.145Z,21.20
2019-02-21T12:33:03.139Z,20.50
2019-02-21T12:34:03.134Z,19.70
2019-02-21T12:35:03.111Z,19.70
2019-02-21T12:36:03.120Z,21.20
2019-02-21T12:37:03.090Z,22.30
2019-02-21T12:38:03.079Z,19.20
2019-02-21T12:39:03.076Z,19.90
2019-02-21T12:40:03.062Z,20.40
2019-02-21T12:41:03.090Z,19.10
2019-02-21T12:42:03.037Z,19.20
2019-02-21T12:43:03.025Z,20.50
2019-02-21T12:44:03.026Z,21.70
2019-02-21T12:45:03.007Z,23.80
2019-02-21T12:46:02.991Z,20.10
2019-02-21T12:47:02.984Z,19.20
2019-02-21T12:48:02.972Z,20.20
2019-02-21T12:49:02.971Z,18.90
2019-02-21T12:50:02.948Z,19.30
2019-02-21T12:51:02.994Z,19.30
2019-02-21T12:52:02.932Z,21.10